Confederate, Kentucky
Current Conditions -  °F | °C
As of 11:35 PM on Wednesday 26 Nov 2014 (Local Time) from K5M9 Reporting Station
Overcast Overcast  
Wind Chill: 27°   Ceiling: 700
Heat Index: 33°   Visibility: 10mi
Dew Point: 32°   Wind: 7mph
Humidity: 96%   Direction: 300°WNW
Pressure: 30.1"   Gusts: NA
Location:  37.0504°N, 88.0159°W
Report Text: K5M9 270535Z AUTO 30006KT 10SM OVC007 01/00 A3010 RMK AO2 T00050000
Loading
Personal Weather Stations






























Interactive Weather Map New forecast layout! Learn more

10-Day Weather Forecast

Advertisements
Track Severe Weather on mobile